createdAt,value
2023-05-14T00:01:16.689Z,9.47
2023-05-14T00:06:38.803Z,9.41
2023-05-14T00:12:01.170Z,9.45
2023-05-14T00:17:23.360Z,9.40
2023-05-14T00:22:45.511Z,9.30
2023-05-14T00:28:07.498Z,9.15
2023-05-14T00:33:30.746Z,9.06
2023-05-14T00:38:52.321Z,9.03
2023-05-14T00:44:14.197Z,8.98
2023-05-14T00:49:36.449Z,8.93
2023-05-14T00:54:59.083Z,8.91
2023-05-14T01:00:21.415Z,9.00
2023-05-14T01:05:49.908Z,8.98
2023-05-14T01:11:19.794Z,8.92
2023-05-14T01:16:43.901Z,9.03
2023-05-14T01:22:06.373Z,9.03
2023-05-14T01:28:05.218Z,8.98
2023-05-14T01:33:29.536Z,8.97
2023-05-14T01:38:51.928Z,8.88
2023-05-14T01:44:14.391Z,8.77
2023-05-14T01:49:39.442Z,8.64
2023-05-14T01:55:01.260Z,8.48
2023-05-14T02:00:26.063Z,8.29
2023-05-14T02:05:48.215Z,8.16
2023-05-14T02:11:10.036Z,8.05
2023-05-14T02:16:31.769Z,8.04
2023-05-14T02:21:53.487Z,7.99
2023-05-14T02:27:15.568Z,7.93
2023-05-14T02:32:37.628Z,8.09
2023-05-14T02:38:00.855Z,8.07
2023-05-14T02:43:23.072Z,8.02
2023-05-14T02:48:44.643Z,8.01
2023-05-14T02:54:06.452Z,8.07
2023-05-14T02:59:28.331Z,8.16
2023-05-14T03:04:50.861Z,8.14
2023-05-14T03:10:12.371Z,8.19
2023-05-14T03:15:34.236Z,8.19
2023-05-14T03:20:58.328Z,8.24
2023-05-14T03:26:19.945Z,8.28
2023-05-14T03:31:41.499Z,8.17
2023-05-14T03:37:03.629Z,8.07
2023-05-14T03:42:25.643Z,8.13
2023-05-14T03:47:47.157Z,8.11
2023-05-14T03:53:09.188Z,8.05
2023-05-14T03:58:31.262Z,8.07
2023-05-14T04:03:55.380Z,8.22
2023-05-14T04:09:17.292Z,8.36
2023-05-14T04:14:38.954Z,8.51
2023-05-14T04:20:00.894Z,8.64
2023-05-14T04:25:22.528Z,8.78
2023-05-14T04:30:44.333Z,8.90
2023-05-14T04:36:06.475Z,9.03
2023-05-14T04:41:28.146Z,9.26
2023-05-14T04:46:49.973Z,9.48
2023-05-14T04:52:11.805Z,9.70
2023-05-14T04:57:36.805Z,9.93
2023-05-14T05:02:58.765Z,10.27
2023-05-14T05:08:20.829Z,10.58
2023-05-14T05:13:42.623Z,10.84
2023-05-14T05:19:04.800Z,11.08
2023-05-14T05:24:26.829Z,11.22
2023-05-14T05:29:49.286Z,11.40
2023-05-14T05:35:11.548Z,11.59
2023-05-14T05:40:33.451Z,11.82
2023-05-14T05:45:55.481Z,12.06
2023-05-14T05:51:17.573Z,12.30
2023-05-14T05:56:39.286Z,12.49
2023-05-14T06:02:00.848Z,12.64
2023-05-14T06:07:25.387Z,12.84
2023-05-14T06:12:47.354Z,12.94
2023-05-14T06:18:09.691Z,13.05
2023-05-14T06:23:32.270Z,13.21
2023-05-14T06:28:54.562Z,13.40
2023-05-14T06:34:17.506Z,13.55
2023-05-14T06:39:39.529Z,13.72
2023-05-14T06:45:01.360Z,13.94
2023-05-14T06:50:23.085Z,14.09
2023-05-14T06:55:47.731Z,14.30
2023-05-14T07:01:11.113Z,14.56
2023-05-14T07:06:33.466Z,14.70
2023-05-14T07:11:55.714Z,14.72
2023-05-14T07:17:17.787Z,14.80
2023-05-14T07:22:39.773Z,14.88
2023-05-14T07:28:01.745Z,15.01
2023-05-14T07:33:24.677Z,15.37
2023-05-14T07:38:46.306Z,15.70
2023-05-14T07:44:08.402Z,15.85
2023-05-14T07:49:30.249Z,16.05
2023-05-14T07:54:52.142Z,16.24
2023-05-14T08:00:14.498Z,16.44
2023-05-14T08:05:36.034Z,16.57
2023-05-14T08:10:57.680Z,16.53
2023-05-14T08:16:19.304Z,16.40
2023-05-14T08:21:41.552Z,16.45
2023-05-14T08:27:03.644Z,16.61
2023-05-14T08:32:25.862Z,16.87
2023-05-14T08:37:47.518Z,17.16
2023-05-14T08:43:10.422Z,17.48
2023-05-14T08:48:34.016Z,17.68
2023-05-14T08:53:59.324Z,17.79
2023-05-14T08:59:21.136Z,18.01
2023-05-14T09:04:42.851Z,17.99
2023-05-14T09:10:05.362Z,18.23
2023-05-14T09:15:28.941Z,18.42
2023-05-14T09:20:52.156Z,18.38
2023-05-14T09:26:17.700Z,18.41
2023-05-14T09:31:39.464Z,18.71
2023-05-14T09:37:05.095Z,18.87
2023-05-14T09:42:27.595Z,18.77
2023-05-14T09:47:49.605Z,18.71
2023-05-14T09:53:11.844Z,18.87
2023-05-14T09:58:34.931Z,19.01
2023-05-14T10:03:57.774Z,19.18
2023-05-14T10:09:26.459Z,19.28
2023-05-14T10:14:49.867Z,19.41
2023-05-14T10:20:15.969Z,19.62
2023-05-14T10:25:38.381Z,19.58
2023-05-14T10:31:01.120Z,19.68
2023-05-14T10:36:23.030Z,19.86
2023-05-14T10:41:45.178Z,19.81
2023-05-14T10:47:08.101Z,19.84
2023-05-14T10:52:30.043Z,19.82
2023-05-14T10:57:52.667Z,19.93
2023-05-14T11:03:14.838Z,20.00
2023-05-14T11:08:37.749Z,20.04
2023-05-14T11:14:01.975Z,20.05
2023-05-14T11:19:23.935Z,20.24
2023-05-14T11:24:45.482Z,20.12
2023-05-14T11:30:19.146Z,19.88
2023-05-14T11:35:43.139Z,19.99
2023-05-14T11:41:07.174Z,20.06
2023-05-14T11:46:30.978Z,20.16
2023-05-14T11:51:59.972Z,20.17
2023-05-14T11:57:22.911Z,20.28
2023-05-14T12:02:45.189Z,20.29
2023-05-14T12:08:28.430Z,20.09
2023-05-14T12:13:51.360Z,20.08
2023-05-14T12:19:19.141Z,20.12
2023-05-14T12:24:41.839Z,20.12
2023-05-14T12:30:20.587Z,20.20
2023-05-14T12:35:44.064Z,20.15
2023-05-14T12:41:06.194Z,20.23
2023-05-14T12:46:28.159Z,20.15
2023-05-14T12:51:52.676Z,20.13
2023-05-14T12:57:18.807Z,20.11
2023-05-14T13:02:42.618Z,20.11
2023-05-14T13:08:05.196Z,20.05
2023-05-14T13:13:27.146Z,20.13
2023-05-14T13:18:49.115Z,20.14
2023-05-14T13:24:10.765Z,20.16
2023-05-14T13:29:32.321Z,20.12
2023-05-14T13:34:54.406Z,20.05
2023-05-14T13:40:18.881Z,20.07
2023-05-14T13:45:41.235Z,20.05
2023-05-14T13:51:03.527Z,20.05
2023-05-14T13:56:25.103Z,20.01
2023-05-14T14:01:48.215Z,19.99
2023-05-14T14:07:10.224Z,20.04
2023-05-14T14:12:31.971Z,20.09
2023-05-14T14:17:54.090Z,20.17
2023-05-14T14:23:15.911Z,20.24
2023-05-14T14:28:38.046Z,20.20
2023-05-14T14:33:59.858Z,20.03
2023-05-14T14:39:21.780Z,19.90
2023-05-14T14:44:43.828Z,19.84
2023-05-14T14:50:06.929Z,19.79
2023-05-14T14:55:28.707Z,19.71
2023-05-14T15:00:53.929Z,19.61
2023-05-14T15:06:15.949Z,19.48
2023-05-14T15:11:37.804Z,19.37
2023-05-14T15:17:00.314Z,19.30
2023-05-14T15:22:25.442Z,19.24
2023-05-14T15:27:48.184Z,19.22
2023-05-14T15:33:10.713Z,19.20
2023-05-14T15:38:35.086Z,19.16
2023-05-14T15:43:58.667Z,19.09
2023-05-14T15:49:23.741Z,19.03
2023-05-14T15:54:47.022Z,18.99
2023-05-14T16:00:11.508Z,18.94
2023-05-14T16:05:33.230Z,18.88
2023-05-14T16:10:55.088Z,18.82
2023-05-14T16:16:17.424Z,18.78
2023-05-14T16:21:41.630Z,18.78
2023-05-14T16:27:03.866Z,18.74
2023-05-14T16:32:25.725Z,18.66
2023-05-14T16:37:47.626Z,18.58
2023-05-14T16:43:09.838Z,18.53
2023-05-14T16:48:32.065Z,18.47
2023-05-14T16:53:55.480Z,18.42
2023-05-14T16:59:18.490Z,18.39
2023-05-14T17:04:42.340Z,18.34
2023-05-14T17:10:05.461Z,18.29
2023-05-14T17:15:27.593Z,18.22
2023-05-14T17:20:51.464Z,18.14
2023-05-14T17:26:13.302Z,18.09
2023-05-14T17:31:35.226Z,18.04
2023-05-14T17:36:58.857Z,17.98
2023-05-14T17:42:23.290Z,17.90
2023-05-14T17:47:45.263Z,17.84
2023-05-14T17:53:07.162Z,17.79
2023-05-14T17:58:29.193Z,17.75
2023-05-14T18:03:51.382Z,17.68
2023-05-14T18:09:16.174Z,17.65
2023-05-14T18:14:38.314Z,17.59
2023-05-14T18:20:00.301Z,17.31
2023-05-14T18:25:25.174Z,16.88
2023-05-14T18:30:47.657Z,16.57
2023-05-14T18:36:09.139Z,16.30
2023-05-14T18:41:36.789Z,16.11
2023-05-14T18:46:59.742Z,15.89
2023-05-14T18:52:26.812Z,15.69
2023-05-14T18:57:52.006Z,15.54
2023-05-14T19:03:14.736Z,15.44
2023-05-14T19:08:36.472Z,15.29
2023-05-14T19:13:58.218Z,15.16
2023-05-14T19:19:21.768Z,15.01
2023-05-14T19:24:46.296Z,14.89
2023-05-14T19:30:09.003Z,14.74
2023-05-14T19:35:31.332Z,14.71
2023-05-14T19:40:56.999Z,14.67
2023-05-14T19:46:22.119Z,14.53
2023-05-14T19:51:44.241Z,14.40
2023-05-14T19:57:06.891Z,14.39
2023-05-14T20:02:29.543Z,14.40
2023-05-14T20:07:51.528Z,14.36
2023-05-14T20:13:13.264Z,14.25
2023-05-14T20:18:35.320Z,14.17
2023-05-14T20:23:58.533Z,14.10
2023-05-14T20:29:20.558Z,14.12
2023-05-14T20:34:42.486Z,14.03
2023-05-14T20:40:06.233Z,13.88
2023-05-14T20:45:32.193Z,13.85
2023-05-14T20:50:54.388Z,13.84
2023-05-14T20:56:16.019Z,13.73
2023-05-14T21:01:37.837Z,13.62
2023-05-14T21:07:00.640Z,13.53
2023-05-14T21:12:22.630Z,13.46
2023-05-14T21:17:44.798Z,13.39
2023-05-14T21:23:07.128Z,13.41
2023-05-14T21:28:32.213Z,13.39
2023-05-14T21:33:55.141Z,13.37
2023-05-14T21:39:17.544Z,13.32
2023-05-14T21:44:41.616Z,13.29
2023-05-14T21:50:05.098Z,13.27
2023-05-14T21:55:28.058Z,13.26
2023-05-14T22:00:52.693Z,13.21
2023-05-14T22:06:17.558Z,13.17
2023-05-14T22:11:39.375Z,13.14
2023-05-14T22:17:01.317Z,13.10
2023-05-14T22:22:25.013Z,13.02
2023-05-14T22:27:46.790Z,12.99
2023-05-14T22:33:09.503Z,12.95
2023-05-14T22:38:31.190Z,12.92
2023-05-14T22:43:53.272Z,12.95
2023-05-14T22:49:14.999Z,12.99
2023-05-14T22:54:36.982Z,13.01
2023-05-14T22:59:58.750Z,13.05
2023-05-14T23:05:23.346Z,13.02
2023-05-14T23:10:45.373Z,12.99
2023-05-14T23:16:07.453Z,13.02
2023-05-14T23:21:29.083Z,13.04
2023-05-14T23:26:50.767Z,13.02
2023-05-14T23:32:13.082Z,12.97
2023-05-14T23:37:36.974Z,12.86
2023-05-14T23:43:00.425Z,12.82
2023-05-14T23:48:22.145Z,12.83
2023-05-14T23:53:44.166Z,12.76
2023-05-14T23:59:06.106Z,12.78
